createdAt,value
2023-02-02T00:00:00.796Z,98736.73
2023-02-02T01:20:53.443Z,98688.77
2023-02-02T01:37:15.435Z,98690.98
2023-02-02T01:53:13.136Z,98685.02
2023-02-02T02:09:10.510Z,98667.00
2023-02-02T02:25:19.914Z,98672.59
2023-02-02T03:44:34.339Z,98612.02
2023-02-02T03:59:38.768Z,98609.36
2023-02-02T04:14:43.478Z,98604.29
2023-02-02T04:29:47.555Z,98615.98
2023-02-02T04:44:53.897Z,98626.27
2023-02-02T04:59:59.060Z,98649.48
2023-02-02T05:15:05.768Z,98665.36
2023-02-02T05:30:11.743Z,98676.41
2023-02-02T05:45:16.524Z,98703.43
2023-02-02T06:00:21.118Z,98719.52
2023-02-02T06:15:28.405Z,98761.22
2023-02-02T06:30:33.460Z,98782.42
2023-02-02T06:45:40.814Z,98815.30
2023-02-02T07:00:45.858Z,98846.71
2023-02-02T07:15:51.499Z,98854.86
2023-02-02T07:30:56.412Z,98892.24
2023-02-02T07:46:05.308Z,98919.63
2023-02-02T08:01:10.321Z,98936.90
2023-02-02T08:16:15.553Z,98954.13
2023-02-02T08:31:30.123Z,98991.75
2023-02-02T08:46:35.558Z,99028.37
2023-02-02T09:01:40.086Z,99049.70
2023-02-02T09:16:45.590Z,99065.64
2023-02-02T09:31:50.224Z,99111.58
2023-02-02T09:46:58.433Z,99126.00
2023-02-02T10:02:08.186Z,99135.48
2023-02-02T10:17:23.837Z,99130.28
2023-02-02T10:32:47.740Z,99137.94
2023-02-02T10:47:53.370Z,99150.53
2023-02-02T11:02:59.378Z,99158.86
2023-02-02T11:18:16.498Z,99178.70
2023-02-02T11:33:23.245Z,99193.35
2023-02-02T11:48:32.366Z,99182.00
2023-02-02T12:03:40.166Z,99193.06
2023-02-02T12:19:03.114Z,99191.67
2023-02-02T12:34:20.170Z,99211.81
2023-02-02T12:49:44.243Z,99256.80
2023-02-02T13:04:58.036Z,99266.84
2023-02-02T13:20:05.785Z,99272.16
2023-02-02T13:35:21.236Z,99287.21
2023-02-02T13:50:30.707Z,99328.97
2023-02-02T14:05:36.037Z,99373.61
2023-02-02T14:20:40.507Z,99389.41
2023-02-02T14:35:44.571Z,99432.98
2023-02-02T14:50:50.068Z,99469.90
2023-02-02T15:06:01.957Z,99508.51
2023-02-02T15:21:06.555Z,99541.88
2023-02-02T15:36:24.279Z,99570.07
2023-02-02T15:51:28.718Z,99598.40
2023-02-02T16:06:35.028Z,99634.88
2023-02-02T16:21:41.679Z,99672.13
2023-02-02T16:37:04.093Z,99712.06
2023-02-02T16:52:16.040Z,99760.98
2023-02-02T17:07:20.393Z,99804.87
2023-02-02T17:22:25.732Z,99850.09
2023-02-02T17:47:33.758Z,99923.77
2023-02-02T18:03:01.136Z,99960.70
2023-02-02T18:18:44.387Z,99994.23
2023-02-02T18:34:10.597Z,100013.58
2023-02-02T18:49:54.449Z,100029.23
2023-02-02T19:05:22.000Z,100049.73
2023-02-02T19:20:48.632Z,100053.63
2023-02-02T19:36:19.108Z,100060.89
2023-02-02T19:51:46.680Z,100079.83
2023-02-02T20:07:13.655Z,100082.86
2023-02-02T20:22:39.738Z,100089.91
2023-02-02T20:38:05.781Z,100103.32
2023-02-02T20:53:32.915Z,100115.35
2023-02-02T21:08:59.897Z,100133.09
2023-02-02T21:24:09.628Z,100132.79
2023-02-02T21:39:36.610Z,100130.80
2023-02-02T21:55:02.902Z,100121.80
2023-02-02T22:10:32.025Z,100120.02
2023-02-02T22:25:58.539Z,100115.29
2023-02-02T22:41:09.809Z,100110.23
2023-02-02T22:56:18.894Z,100118.52
2023-02-02T23:11:49.187Z,100119.34
2023-02-02T23:27:15.540Z,100111.19
2023-02-02T23:42:41.792Z,100101.71
2023-02-02T23:58:08.582Z,100091.13
